Time;durP1;ratioP1;P1;durP2;ratioP2;P2;SDS_P1;SDS_P2;PMS_P1;PMS_P2;Temp;Humidity;BMP_temperature;BMP_pressure;BME280_temperature;BME280_humidity;BME280_pressure;Samples;Min_cycle;Max_cycle;Signal;HPM_P1;HPM_P2
2021/07/07 00:00:58;;;;;;;;;;;;;;;28.79;46.39;100458.98;1736031;82;20172;-77
2021/07/07 00:03:26;;;;;;;;;;;;;;;28.76;46.42;100461.77;1730633;82;20244;-77
2021/07/07 00:05:52;;;;;;;;;;;;;;;28.72;46.57;100467.56;1730526;82;20240;-77
2021/07/07 00:08:18;;;;;;;;;;;;;;;28.71;46.32;100471.43;1729892;82;20428;-77
2021/07/07 00:10:44;;;;;;;;;;;;;;;28.70;46.08;100473.89;1730299;83;20270;-77
2021/07/07 00:13:10;;;;;;;;;;;;;;;28.68;45.72;100474.73;1729733;83;20227;-77
2021/07/07 00:15:38;;;;;;;;;;;;;;;28.66;45.35;100471.45;1728276;82;20232;-76
2021/07/07 00:18:07;;;;;;;;;;;;;;;28.64;45.57;100477.77;1728052;82;20235;-77
2021/07/07 00:20:38;;;;;;;;;;;;;;;28.61;45.90;100476.94;1729575;83;20211;-77
2021/07/07 00:23:02;;;;;;;;;;;;;;;28.60;46.27;100480.80;1729684;82;20482;-77
2021/07/07 00:25:28;;;;;;;;;;;;;;;28.59;46.85;100483.29;1730506;83;20197;-77
2021/07/07 00:27:54;;;;;;;;;;;;;;;28.58;47.08;100484.95;1730558;82;20227;-77
2021/07/07 00:30:20;;;;;;;;;;;;;;;28.55;47.40;100480.81;1730655;83;20191;-77
2021/07/07 00:32:46;;;;;;;;;;;;;;;28.53;47.63;100485.79;1730501;83;20172;-77
2021/07/07 00:35:12;;;;;;;;;;;;;;;28.52;47.75;100486.86;1730674;83;20189;-77
2021/07/07 00:37:38;;;;;;;;;;;;;;;28.49;47.20;100481.37;1730821;83;20172;-77
2021/07/07 00:40:07;;;;;;;;;;;;;;;28.52;47.33;100479.98;1730389;82;20173;-75
2021/07/07 00:42:34;;;;;;;;;;;;;;;28.52;47.49;100484.11;1730461;83;20200;-76
2021/07/07 00:45:01;;;;;;;;;;;;;;;28.51;47.64;100480.53;1730505;82;20209;-76
2021/07/07 00:47:27;;;;;;;;;;;;;;;28.50;47.51;100486.33;1730911;83;20222;-75
2021/07/07 00:49:53;;;;;;;;;;;;;;;28.50;47.39;100491.84;1729920;82;20216;-75
2021/07/07 00:52:19;;;;;;;;;;;;;;;28.48;47.35;100494.88;1730389;83;20172;-75
2021/07/07 00:54:46;;;;;;;;;;;;;;;28.46;47.34;100494.31;1730818;82;20274;-75
2021/07/07 00:57:13;;;;;;;;;;;;;;;28.45;47.17;100495.98;1730736;82;20168;-75
2021/07/07 00:59:41;;;;;;;;;;;;;;;28.43;46.61;100496.79;1729156;82;20213;-75
2021/07/07 01:02:08;;;;;;;;;;;;;;;28.38;45.83;100500.38;1728793;83;20228;-75
2021/07/07 01:04:34;;;;;;;;;;;;;;;28.36;45.38;100500.39;1728849;82;20216;-75
2021/07/07 01:07:03;;;;;;;;;;;;;;;28.35;45.14;100500.12;1728869;83;20527;-76
2021/07/07 01:09:29;;;;;;;;;;;;;;;28.35;44.83;100499.56;1730329;83;20488;-75
2021/07/07 01:11:55;;;;;;;;;;;;;;;28.33;44.60;100506.67;1739605;82;20242;-75
2021/07/07 01:14:21;;;;;;;;;;;;;;;28.31;44.53;100506.14;1737125;82;20320;-75
2021/07/07 01:16:49;;;;;;;;;;;;;;;28.29;44.36;100504.19;1737463;82;20093;-75
2021/07/07 01:19:16;;;;;;;;;;;;;;;28.25;44.36;100500.88;1737528;82;20393;-75
2021/07/07 01:21:45;;;;;;;;;;;;;;;28.24;44.44;100504.75;1737482;82;20130;-76
2021/07/07 01:24:14;;;;;;;;;;;;;;;28.22;44.28;100506.96;1738136;81;20232;-75
2021/07/07 01:26:40;;;;;;;;;;;;;;;28.18;44.20;100508.05;1737085;82;20173;-75
2021/07/07 01:29:06;;;;;;;;;;;;;;;28.18;44.18;100514.94;1737049;82;20460;-75
2021/07/07 01:31:33;;;;;;;;;;;;;;;28.17;43.97;100507.78;1766072;81;20145;-75
2021/07/07 01:33:59;;;;;;;;;;;;;;;28.14;43.63;100516.59;1737289;82;20219;-75
2021/07/07 01:36:25;;;;;;;;;;;;;;;28.10;43.78;100518.23;1737589;82;20182;-75
2021/07/07 01:38:52;;;;;;;;;;;;;;;28.07;43.81;100518.80;1734962;81;20187;-75
2021/07/07 01:41:18;;;;;;;;;;;;;;;28.06;43.81;100514.36;1736376;82;20203;-75
2021/07/07 01:43:44;;;;;;;;;;;;;;;28.06;43.95;100517.12;1737561;81;20151;-75
2021/07/07 01:46:10;;;;;;;;;;;;;;;28.06;44.25;100515.73;1735831;81;20366;-75
2021/07/07 01:48:36;;;;;;;;;;;;;;;28.05;44.36;100520.98;1734397;82;20245;-75
2021/07/07 01:51:02;;;;;;;;;;;;;;;28.03;44.34;100519.06;1737124;82;20192;-75
2021/07/07 01:53:29;;;;;;;;;;;;;;;28.01;44.44;100522.62;1702399;84;20178;-75
2021/07/07 01:55:56;;;;;;;;;;;;;;;27.99;44.47;100520.15;1722556;82;20235;-75
2021/07/07 01:58:22;;;;;;;;;;;;;;;27.95;44.68;100519.03;1735814;82;20207;-75
2021/07/07 02:00:47;;;;;;;;;;;;;;;27.93;44.95;100520.39;1735465;82;20316;-75
2021/07/07 02:03:13;;;;;;;;;;;;;;;27.94;45.25;100530.33;1736871;82;20151;-75
2021/07/07 02:05:41;;;;;;;;;;;;;;;27.92;45.51;100532.51;1736624;82;20526;-74
2021/07/07 02:08:08;;;;;;;;;;;;;;;27.90;45.54;100530.59;1736967;82;20741;-74
2021/07/07 02:10:35;;;;;;;;;;;;;;;27.87;45.58;100538.83;1737060;82;20164;-74
2021/07/07 02:13:07;;;;;;;;;;;;;;;27.85;45.60;100541.59;1737057;82;20160;-75
2021/07/07 02:15:34;;;;;;;;;;;;;;;27.81;45.51;100538.55;1737146;82;20425;-74
2021/07/07 02:18:00;;;;;;;;;;;;;;;27.80;45.73;100537.72;1736667;82;20204;-74
2021/07/07 02:20:28;;;;;;;;;;;;;;;27.80;45.83;100547.91;1736870;82;20171;-75
2021/07/07 02:22:54;;;;;;;;;;;;;;;27.78;46.01;100546.78;1737352;82;20410;-74
2021/07/07 02:25:22;;;;;;;;;;;;;;;27.77;46.04;100549.27;1739537;82;20156;-74
2021/07/07 02:27:50;;;;;;;;;;;;;;;27.75;46.10;100548.72;1736840;82;20130;-74
2021/07/07 02:30:18;;;;;;;;;;;;;;;27.75;46.03;100553.38;1764033;80;20175;-74
2021/07/07 02:32:45;;;;;;;;;;;;;;;27.74;45.99;100553.92;1736479;82;20194;-74
2021/07/07 02:35:14;;;;;;;;;;;;;;;27.72;45.85;100556.13;1735423;81;20170;-74
2021/07/07 02:37:40;;;;;;;;;;;;;;;27.70;45.78;100560.20;1736028;82;20158;-74
2021/07/07 02:40:08;;;;;;;;;;;;;;;27.67;45.70;100562.97;1738654;82;20214;-74
2021/07/07 02:42:34;;;;;;;;;;;;;;;27.64;45.79;100557.16;1738727;82;20233;-74
2021/07/07 02:45:01;;;;;;;;;;;;;;;27.64;45.71;100562.67;1739615;82;20179;-74
2021/07/07 02:47:27;;;;;;;;;;;;;;;27.62;45.80;100563.50;1739599;82;20468;-74
2021/07/07 02:49:53;;;;;;;;;;;;;;;27.63;45.67;100561.84;1740254;82;20195;-74
2021/07/07 02:52:19;;;;;;;;;;;;;;;27.62;45.53;100560.20;1740129;82;20199;-74
2021/07/07 02:54:48;;;;;;;;;;;;;;;27.63;45.44;100563.77;1740051;82;20527;-75
2021/07/07 02:57:16;;;;;;;;;;;;;;;27.63;45.48;100567.34;1738981;82;20547;-75
2021/07/07 02:59:42;;;;;;;;;;;;;;;27.64;45.45;100566.25;1739295;82;20487;-74
2021/07/07 03:02:09;;;;;;;;;;;;;;;27.64;45.52;100571.75;1738631;82;20205;-74
2021/07/07 03:04:35;;;;;;;;;;;;;;;27.62;45.35;100572.58;1738950;82;20206;-75
2021/07/07 03:07:03;;;;;;;;;;;;;;;27.59;45.31;100583.28;1739631;82;20210;-74
2021/07/07 03:09:29;;;;;;;;;;;;;;;27.56;45.24;100573.63;1739774;82;20497;-73
2021/07/07 03:11:56;;;;;;;;;;;;;;;27.60;45.17;100577.50;1740038;82;20236;-74
2021/07/07 03:14:24;;;;;;;;;;;;;;;27.60;45.08;100577.50;1740161;82;20230;-77
2021/07/07 03:16:50;;;;;;;;;;;;;;;27.57;44.92;100578.06;1740253;82;20219;-74
2021/07/07 03:19:16;;;;;;;;;;;;;;;27.59;45.01;100574.48;1718316;82;20182;-74
2021/07/07 03:21:42;;;;;;;;;;;;;;;27.58;44.98;100579.71;1739578;81;20206;-74
2021/07/07 03:24:10;;;;;;;;;;;;;;;27.54;45.12;100575.84;1738022;81;20221;-74
2021/07/07 03:26:36;;;;;;;;;;;;;;;27.52;45.14;100589.02;1736201;82;20307;-75
2021/07/07 03:29:03;;;;;;;;;;;;;;;27.55;44.90;100593.44;1735782;82;20179;-75
2021/07/07 03:31:29;;;;;;;;;;;;;;;27.53;44.90;100605.28;1735838;82;20251;-75
2021/07/07 03:33:55;;;;;;;;;;;;;;;27.51;44.99;100603.33;1735912;82;20469;-74
2021/07/07 03:36:21;;;;;;;;;;;;;;;27.52;45.09;100604.97;1736531;82;20152;-75
2021/07/07 03:38:47;;;;;;;;;;;;;;;27.54;45.01;100603.35;1736421;82;20171;-75
2021/07/07 03:41:13;;;;;;;;;;;;;;;27.56;45.04;100603.90;1736681;82;20151;-75
2021/07/07 03:43:39;;;;;;;;;;;;;;;27.59;44.95;100614.38;1736426;82;20177;-76
2021/07/07 03:46:05;;;;;;;;;;;;;;;27.62;44.61;100616.61;1737487;81;20180;-75
2021/07/07 03:48:32;;;;;;;;;;;;;;;27.59;44.56;100612.18;1735232;82;20494;-74
2021/07/07 03:51:00;;;;;;;;;;;;;;;27.55;44.57;100618.76;1735532;82;20437;-74
2021/07/07 03:53:26;;;;;;;;;;;;;;;27.59;44.58;100610.25;1735620;82;20173;-75
2021/07/07 03:55:51;;;;;;;;;;;;;;;27.60;44.20;100627.03;1735381;82;20189;-75
2021/07/07 03:58:18;;;;;;;;;;;;;;;27.55;44.12;100616.01;1738198;82;20318;-75
2021/07/07 04:00:44;;;;;;;;;;;;;;;27.53;44.04;100616.84;1735511;81;20196;-74
2021/07/07 04:03:11;;;;;;;;;;;;;;;27.52;44.01;100619.28;1735664;82;20351;-76
2021/07/07 04:05:38;;;;;;;;;;;;;;;27.53;43.98;100614.91;1736871;81;20221;-76
2021/07/07 04:08:04;;;;;;;;;;;;;;;27.52;43.71;100622.03;1752706;81;20144;-75
2021/07/07 04:10:30;;;;;;;;;;;;;;;27.54;43.85;100628.94;1755416;81;20188;-75
2021/07/07 04:12:57;;;;;;;;;;;;;;;27.56;43.72;100630.03;1723350;81;20221;-75
2021/07/07 04:15:23;;;;;;;;;;;;;;;27.55;43.77;100638.02;1720814;81;20201;-74
2021/07/07 04:17:50;;;;;;;;;;;;;;;27.56;43.65;100639.67;1756813;81;20204;-75
2021/07/07 04:20:17;;;;;;;;;;;;;;;27.59;43.58;100636.95;1744732;81;20791;-76
2021/07/07 04:22:43;;;;;;;;;;;;;;;27.62;43.58;100633.13;1732190;81;20195;-73
2021/07/07 04:25:10;;;;;;;;;;;;;;;27.63;43.40;100632.02;1745868;81;20754;-76
2021/07/07 04:27:37;;;;;;;;;;;;;;;27.65;43.34;100637.24;1746056;81;20148;-77
2021/07/07 04:30:06;;;;;;;;;;;;;;;27.64;43.20;100634.22;1741568;81;20169;-76
2021/07/07 04:32:32;;;;;;;;;;;;;;;27.58;43.40;100640.25;1741341;81;20409;-76
2021/07/07 04:34:59;;;;;;;;;;;;;;;27.48;43.43;100636.04;1734445;82;20445;-74
2021/07/07 04:37:25;;;;;;;;;;;;;;;27.44;43.64;100641.82;1737209;82;20226;-76
2021/07/07 04:39:54;;;;;;;;;;;;;;;27.42;43.70;100639.86;1734607;81;20156;-76
2021/07/07 04:42:19;;;;;;;;;;;;;;;27.39;43.67;100645.37;1737789;81;20155;-76
2021/07/07 04:44:44;;;;;;;;;;;;;;;27.36;43.66;100651.39;1731846;82;20263;-77
2021/07/07 04:47:10;;;;;;;;;;;;;;;27.35;43.71;100646.98;1742156;81;20186;-75
2021/07/07 04:49:37;;;;;;;;;;;;;;;27.36;43.73;100650.56;1733257;82;20199;-75
2021/07/07 04:52:04;;;;;;;;;;;;;;;27.47;43.69;100653.64;1735021;81;20122;-75
2021/07/07 04:54:32;;;;;;;;;;;;;;;27.45;43.84;100659.98;1734165;81;20208;-75
2021/07/07 04:56:58;;;;;;;;;;;;;;;27.47;43.81;100661.34;1742704;81;20183;-75
2021/07/07 04:59:25;;;;;;;;;;;;;;;27.47;43.80;100661.91;1692039;84;20179;-75
2021/07/07 05:01:51;;;;;;;;;;;;;;;27.49;43.73;100661.11;1739059;81;20205;-76
2021/07/07 05:04:18;;;;;;;;;;;;;;;27.51;43.65;100663.03;1738074;81;20260;-77
2021/07/07 05:06:47;;;;;;;;;;;;;;;27.51;43.64;100668.53;1729235;81;20385;-76
2021/07/07 05:09:14;;;;;;;;;;;;;;;27.50;43.67;100668.26;1733275;81;20154;-76
2021/07/07 05:11:40;;;;;;;;;;;;;;;27.49;43.79;100668.81;1740798;81;20164;-76
2021/07/07 05:14:07;;;;;;;;;;;;;;;27.47;43.89;100676.48;1746877;81;20172;-76
2021/07/07 05:16:33;;;;;;;;;;;;;;;27.47;44.08;100678.41;1732952;82;20186;-76
2021/07/07 05:19:00;;;;;;;;;;;;;;;27.54;43.94;100683.14;1734473;81;20546;-77
2021/07/07 05:21:26;;;;;;;;;;;;;;;27.50;44.26;100684.22;1736598;82;20171;-77
2021/07/07 05:23:54;;;;;;;;;;;;;;;27.54;44.29;100688.65;1722627;82;20149;-77
2021/07/07 05:26:20;;;;;;;;;;;;;;;27.58;44.27;100693.08;1737073;81;20163;-77
2021/07/07 05:28:45;;;;;;;;;;;;;;;27.57;44.12;100690.87;1705813;84;20222;-77
2021/07/07 05:31:11;;;;;;;;;;;;;;;27.55;44.16;100699.92;1705659;84;20153;-77
2021/07/07 05:33:37;;;;;;;;;;;;;;;27.58;44.17;100699.41;1737365;81;20167;-77
2021/07/07 05:36:06;;;;;;;;;;;;;;;27.59;44.02;100699.69;1735990;82;20178;-77
2021/07/07 05:38:32;;;;;;;;;;;;;;;27.55;44.06;100698.55;1734438;82;20180;-77
2021/07/07 05:40:59;;;;;;;;;;;;;;;27.52;44.04;100700.45;1732576;82;20197;-77
2021/07/07 05:43:25;;;;;;;;;;;;;;;27.53;44.11;100700.20;1729310;82;20813;-79
2021/07/07 05:45:52;;;;;;;;;;;;;;;27.55;44.20;100701.30;1724767;82;20188;-79
2021/07/07 05:48:18;;;;;;;;;;;;;;;27.55;44.11;100700.75;1735421;81;20174;-76
2021/07/07 05:50:44;;;;;;;;;;;;;;;27.58;44.34;100703.53;1733198;81;20198;-78
2021/07/07 05:53:10;;;;;;;;;;;;;;;27.63;44.18;100706.31;1732133;81;20151;-77
2021/07/07 05:55:36;;;;;;;;;;;;;;;27.68;44.01;100706.34;1735651;81;20163;-76
2021/07/07 05:58:03;;;;;;;;;;;;;;;27.72;43.93;100709.44;1703186;82;20163;-75
2021/07/07 06:00:29;;;;;;;;;;;;;;;27.78;43.87;100710.56;1732094;81;20158;-76
2021/07/07 06:02:56;;;;;;;;;;;;;;;27.84;43.87;100714.72;1733063;81;20219;-76
2021/07/07 06:05:22;;;;;;;;;;;;;;;27.90;44.10;100721.92;1731606;81;20193;-76
2021/07/07 06:07:49;;;;;;;;;;;;;;;27.97;43.79;100725.25;1731626;81;20144;-77
2021/07/07 06:10:18;;;;;;;;;;;;;;;28.06;43.88;100722.27;1729489;81;20174;-77
2021/07/07 06:12:44;;;;;;;;;;;;;;;28.14;43.87;100725.89;1735906;81;20206;-76
2021/07/07 06:15:11;;;;;;;;;;;;;;;28.23;44.09;100722.08;1732402;81;20214;-76
2021/07/07 06:17:40;;;;;;;;;;;;;;;28.35;44.07;100721.89;1733823;81;20193;-76
2021/07/07 06:20:08;;;;;;;;;;;;;;;28.49;43.44;100724.42;1720243;82;20215;-76
2021/07/07 06:22:39;;;;;;;;;;;;;;;28.62;43.46;100718.39;1732719;81;20168;-76
2021/07/07 06:25:05;;;;;;;;;;;;;;;28.77;43.03;100725.86;1695704;83;20166;-76
2021/07/07 06:27:32;;;;;;;;;;;;;;;28.87;42.57;100731.94;1722165;81;20182;-77
2021/07/07 06:29:57;;;;;;;;;;;;;;;28.95;42.43;100740.53;1700105;83;20166;-76
2021/07/07 06:32:30;;;;;;;;;;;;;;;29.03;42.16;100735.04;1700695;83;20149;-76
2021/07/07 06:35:01;;;;;;;;;;;;;;;29.11;42.27;100739.16;1698947;84;20150;-75
2021/07/07 06:37:25;;;;;;;;;;;;;;;29.24;42.27;100742.76;1742215;81;20159;-75
2021/07/07 06:39:50;;;;;;;;;;;;;;;29.37;41.68;100737.24;1696088;82;20417;-77
2021/07/07 06:42:17;;;;;;;;;;;;;;;29.54;41.19;100748.83;1732951;81;20248;-76
2021/07/07 06:44:44;;;;;;;;;;;;;;;29.65;41.01;100751.05;1703108;83;20460;-76
2021/07/07 06:47:11;;;;;;;;;;;;;;;29.71;40.87;100757.68;1704407;82;20194;-76
2021/07/07 06:49:37;;;;;;;;;;;;;;;29.75;40.59;100753.27;1700295;83;20146;-75
2021/07/07 06:52:04;;;;;;;;;;;;;;;29.75;40.40;100761.55;1736839;81;20111;-75
2021/07/07 06:54:30;;;;;;;;;;;;;;;29.71;40.35;100758.23;1737937;81;20580;-75
2021/07/07 06:56:56;;;;;;;;;;;;;;;29.64;40.41;100761.27;1733829;81;20217;-75
2021/07/07 06:59:22;;;;;;;;;;;;;;;29.57;40.53;100756.59;1729997;81;20496;-75
2021/07/07 07:01:50;;;;;;;;;;;;;;;29.52;40.70;100755.16;1730547;81;20204;-77
2021/07/07 07:04:17;;;;;;;;;;;;;;;29.45;40.88;100758.77;1732821;81;20174;-76
2021/07/07 07:06:43;;;;;;;;;;;;;;;29.40;41.08;100767.05;1725373;81;20847;-77
2021/07/07 07:09:12;;;;;;;;;;;;;;;29.37;41.31;100759.32;1731215;81;20485;-76
2021/07/07 07:11:49;;;;;;;;;;;;;;;29.27;41.45;100765.11;1731591;81;20139;-77
2021/07/07 07:14:19;;;;;;;;;;;;;;;29.26;41.15;100770.36;1736348;81;20195;-77
2021/07/07 07:19:35;;;;;;;;;;;;;;;29.18;41.46;100774.22;1716954;81;20155;-78
2021/07/07 07:22:08;;;;;;;;;;;;;;;29.12;41.42;100772.02;1732917;81;20130;-77
2021/07/07 07:24:34;;;;;;;;;;;;;;;29.10;41.09;100767.86;1731278;81;20162;-79
2021/07/07 07:27:06;;;;;;;;;;;;;;;29.05;40.92;100767.30;1730220;81;20177;-77
2021/07/07 07:29:32;;;;;;;;;;;;;;;29.02;40.70;100760.94;1729409;81;20122;-78
2021/07/07 07:32:00;;;;;;;;;;;;;;;28.99;40.66;100756.81;1725561;81;20201;-77
2021/07/07 07:34:26;;;;;;;;;;;;;;;28.96;40.67;100766.18;1732070;81;20319;-78
2021/07/07 07:36:58;;;;;;;;;;;;;;;28.94;40.83;100766.43;1728858;81;20828;-78
2021/07/07 07:39:23;;;;;;;;;;;;;;;29.01;40.83;100766.19;1731707;81;20293;-77
2021/07/07 07:42:14;;;;;;;;;;;;;;;29.01;40.73;100763.43;1699504;83;20232;-77
2021/07/07 07:44:45;;;;;;;;;;;;;;;29.01;40.56;100762.87;1698600;83;20268;-77
2021/07/07 07:47:16;;;;;;;;;;;;;;;29.01;40.58;100759.30;1733009;81;20600;-79
2021/07/07 07:49:44;;;;;;;;;;;;;;;29.03;40.32;100764.83;1723168;82;20251;-76
